createdAt,value
2018-08-23T00:01:30.374Z,20.40
2018-08-23T00:04:05.605Z,20.30
2018-08-23T00:06:35.116Z,20.20
2018-08-23T00:09:06.388Z,20.30
2018-08-23T00:11:39.785Z,20.20
2018-08-23T00:14:09.228Z,20.10
2018-08-23T00:16:42.790Z,20.10
2018-08-23T00:19:12.151Z,20.10
2018-08-23T00:21:45.640Z,20.00
2018-08-23T00:24:23.451Z,20.00
2018-08-23T00:26:56.258Z,20.00
2018-08-23T00:29:27.173Z,20.00
2018-08-23T00:32:00.726Z,20.00
2018-08-23T00:34:33.272Z,20.10
2018-08-23T00:37:03.934Z,20.00
2018-08-23T00:39:33.172Z,20.10
2018-08-23T00:42:05.040Z,20.10
2018-08-23T00:44:55.209Z,20.10
2018-08-23T00:47:31.544Z,20.10
2018-08-23T00:50:00.999Z,20.00
2018-08-23T00:52:46.046Z,19.90
2018-08-23T00:55:27.992Z,19.90
2018-08-23T00:57:57.228Z,19.90
2018-08-23T01:00:27.643Z,19.90
2018-08-23T01:03:02.530Z,20.00
2018-08-23T01:05:41.007Z,20.00
2018-08-23T01:08:10.238Z,20.00
2018-08-23T01:10:40.148Z,20.10
2018-08-23T01:13:09.365Z,20.00
2018-08-23T01:15:38.601Z,20.00
2018-08-23T01:18:13.942Z,20.00
2018-08-23T01:20:44.174Z,20.00
2018-08-23T01:23:13.480Z,20.00
2018-08-23T01:25:43.913Z,20.00
2018-08-23T01:28:13.169Z,19.90
2018-08-23T01:30:42.849Z,19.90
2018-08-23T01:33:12.995Z,19.80
2018-08-23T01:35:43.628Z,19.80
2018-08-23T01:38:13.566Z,19.80
2018-08-23T01:40:42.862Z,19.80
2018-08-23T01:43:12.135Z,19.60
2018-08-23T01:45:41.360Z,19.50
2018-08-23T01:48:11.426Z,19.50
2018-08-23T01:50:40.761Z,19.40
2018-08-23T01:53:10.010Z,19.40
2018-08-23T01:55:39.202Z,19.40
2018-08-23T01:58:08.426Z,19.40
2018-08-23T02:00:37.650Z,19.30
2018-08-23T02:03:06.915Z,19.10
2018-08-23T02:05:37.925Z,19.30
2018-08-23T02:08:07.669Z,19.30
2018-08-23T02:10:36.917Z,19.20
2018-08-23T02:13:10.781Z,19.20
2018-08-23T02:15:45.331Z,19.20
2018-08-23T02:18:14.612Z,19.30
2018-08-23T02:20:43.831Z,19.10
2018-08-23T02:23:13.063Z,19.10
2018-08-23T02:25:42.305Z,19.00
2018-08-23T02:28:12.819Z,19.00
2018-08-23T02:30:53.360Z,19.00
2018-08-23T02:33:22.614Z,19.10
2018-08-23T02:36:22.606Z,19.00
2018-08-23T02:38:55.636Z,18.80
2018-08-23T02:41:24.873Z,18.90
2018-08-23T02:43:54.094Z,18.70
2018-08-23T02:46:23.310Z,18.70
2018-08-23T02:48:52.543Z,18.70
2018-08-23T02:51:29.140Z,18.70
2018-08-23T02:53:58.356Z,18.80
2018-08-23T02:56:27.612Z,18.70
2018-08-23T02:59:02.369Z,18.70
2018-08-23T03:01:32.871Z,18.80
2018-08-23T03:04:12.735Z,18.80
2018-08-23T03:06:49.264Z,18.70
2018-08-23T03:09:20.418Z,18.60
2018-08-23T03:11:50.884Z,18.50
2018-08-23T03:14:21.251Z,18.40
2018-08-23T03:17:33.573Z,18.30
2018-08-23T03:20:07.080Z,18.40
2018-08-23T03:22:36.696Z,18.30
2018-08-23T03:25:07.937Z,18.30
2018-08-23T03:27:37.217Z,18.30
2018-08-23T03:30:08.196Z,18.10
2018-08-23T03:32:37.498Z,18.10
2018-08-23T03:35:06.854Z,18.00
2018-08-23T03:37:36.111Z,18.00
2018-08-23T03:40:06.064Z,17.90
2018-08-23T03:42:35.276Z,17.90
2018-08-23T03:45:04.522Z,17.80
2018-08-23T03:47:39.596Z,17.90
2018-08-23T03:50:09.785Z,17.90
2018-08-23T03:52:40.861Z,17.80
2018-08-23T03:55:11.484Z,17.70
2018-08-23T03:57:46.042Z,17.70
2018-08-23T04:00:15.280Z,17.80
2018-08-23T04:02:44.530Z,17.70
2018-08-23T04:05:18.735Z,17.70
2018-08-23T04:07:47.928Z,17.70
2018-08-23T04:10:17.169Z,17.70
2018-08-23T04:12:46.385Z,17.80
2018-08-23T04:15:25.903Z,17.70
2018-08-23T04:17:55.133Z,17.70
2018-08-23T04:20:24.394Z,17.70
2018-08-23T04:22:53.695Z,17.70
2018-08-23T04:25:22.890Z,17.70
2018-08-23T04:27:52.117Z,17.60
2018-08-23T04:30:21.934Z,17.50
2018-08-23T04:32:51.157Z,17.50
2018-08-23T04:35:29.065Z,17.60
2018-08-23T04:37:58.284Z,17.70
2018-08-23T04:40:27.661Z,17.60
2018-08-23T04:42:56.948Z,17.70
2018-08-23T04:45:28.450Z,17.80
2018-08-23T04:48:02.783Z,17.80
2018-08-23T04:50:32.054Z,17.80
2018-08-23T04:53:01.301Z,17.80
2018-08-23T04:55:30.546Z,17.90
2018-08-23T04:58:00.356Z,17.90
2018-08-23T05:00:30.273Z,17.90
2018-08-23T05:02:59.605Z,18.10
2018-08-23T05:05:28.853Z,18.10
2018-08-23T05:07:58.304Z,18.10
2018-08-23T05:10:27.609Z,18.20
2018-08-23T05:12:56.842Z,18.30
2018-08-23T05:15:26.105Z,18.30
2018-08-23T05:17:55.397Z,18.30
2018-08-23T05:20:24.649Z,18.50
2018-08-23T05:23:01.021Z,18.50
2018-08-23T05:25:30.290Z,18.60
2018-08-23T05:28:14.216Z,18.50
2018-08-23T05:30:44.509Z,18.60
2018-08-23T05:33:18.274Z,18.70
2018-08-23T05:35:47.706Z,18.70
2018-08-23T05:38:18.177Z,18.80
2018-08-23T05:40:54.147Z,18.80
2018-08-23T05:43:23.885Z,18.90
2018-08-23T05:45:54.554Z,18.90
2018-08-23T05:48:32.289Z,19.00
2018-08-23T05:51:05.075Z,19.10
2018-08-23T05:53:38.611Z,19.20
2018-08-23T05:56:08.886Z,19.30
2018-08-23T05:58:38.546Z,19.40
2018-08-23T06:01:07.952Z,19.50
2018-08-23T06:03:38.685Z,19.60
2018-08-23T06:06:08.495Z,19.70
2018-08-23T06:08:40.306Z,19.80
2018-08-23T06:11:10.745Z,19.90
2018-08-23T06:13:40.633Z,20.00
2018-08-23T06:16:09.961Z,20.00
2018-08-23T06:18:39.224Z,20.10
2018-08-23T06:21:08.563Z,20.30
2018-08-23T06:24:04.781Z,20.30
2018-08-23T06:26:43.339Z,20.50
2018-08-23T06:29:15.900Z,20.60
2018-08-23T06:31:57.937Z,20.70
2018-08-23T06:34:28.733Z,20.90
2018-08-23T06:36:57.985Z,20.90
2018-08-23T06:39:27.230Z,21.10
2018-08-23T06:41:59.005Z,21.10
2018-08-23T06:44:35.173Z,21.30
2018-08-23T06:47:04.521Z,21.40
2018-08-23T06:49:33.786Z,21.60
2018-08-23T06:52:13.900Z,21.70
2018-08-23T06:54:43.330Z,21.80
2018-08-23T06:57:12.808Z,21.90
2018-08-23T06:59:42.065Z,22.10
2018-08-23T07:02:11.326Z,22.20
2018-08-23T07:04:40.611Z,22.40
2018-08-23T07:07:13.974Z,22.60
2018-08-23T07:09:43.227Z,22.70
2018-08-23T07:12:18.887Z,22.80
2018-08-23T07:14:49.579Z,22.90
2018-08-23T07:17:24.135Z,23.10
2018-08-23T07:19:53.811Z,23.30
2018-08-23T07:22:24.442Z,23.50
2018-08-23T07:24:54.895Z,23.60
2018-08-23T07:27:24.291Z,23.90
2018-08-23T07:29:55.816Z,24.10
2018-08-23T07:32:27.022Z,24.30
2018-08-23T07:35:06.174Z,24.50
2018-08-23T07:37:36.684Z,24.60
2018-08-23T07:40:11.400Z,24.80
2018-08-23T07:42:41.891Z,24.90
2018-08-23T07:45:11.608Z,25.10
2018-08-23T07:47:55.924Z,25.20
2018-08-23T07:50:25.173Z,25.30
2018-08-23T07:52:55.069Z,25.40
2018-08-23T07:55:24.277Z,25.70
2018-08-23T07:57:53.501Z,26.00
2018-08-23T08:00:36.245Z,26.10
2018-08-23T08:03:05.883Z,26.30
2018-08-23T08:05:38.172Z,26.50
2018-08-23T08:08:08.474Z,26.80
2018-08-23T08:10:43.254Z,27.00
2018-08-23T08:13:12.637Z,27.10
2018-08-23T08:15:41.925Z,27.20
2018-08-23T08:18:26.483Z,27.20
2018-08-23T08:21:02.692Z,27.30
2018-08-23T08:23:32.633Z,27.40
2018-08-23T08:26:01.924Z,27.60
2018-08-23T08:28:31.187Z,27.60
2018-08-23T08:31:01.897Z,27.70
2018-08-23T08:33:35.403Z,27.80
2018-08-23T08:36:05.461Z,27.90
2018-08-23T08:38:35.247Z,28.00
2018-08-23T08:41:04.574Z,28.20
2018-08-23T08:43:33.839Z,28.40
2018-08-23T08:46:03.206Z,28.50
2018-08-23T08:48:35.369Z,28.60
2018-08-23T08:51:19.671Z,28.70
2018-08-23T08:53:48.992Z,28.80
2018-08-23T08:56:23.103Z,29.00
2018-08-23T08:58:52.584Z,29.10
2018-08-23T09:01:21.885Z,29.20
2018-08-23T09:03:51.260Z,29.20
2018-08-23T09:06:23.953Z,29.20
2018-08-23T09:08:53.218Z,29.20
2018-08-23T09:11:23.365Z,29.30
2018-08-23T09:13:52.582Z,29.30
2018-08-23T09:16:23.678Z,29.30
2018-08-23T09:19:03.448Z,29.40
2018-08-23T09:21:33.225Z,29.50
2018-08-23T09:24:23.582Z,29.60
2018-08-23T09:26:53.542Z,29.70
2018-08-23T09:29:39.700Z,29.90
2018-08-23T09:32:20.561Z,30.00
2018-08-23T09:34:50.255Z,30.20
2018-08-23T09:37:19.508Z,30.20
2018-08-23T09:39:48.729Z,30.20
2018-08-23T09:42:17.978Z,30.40
2018-08-23T09:45:04.261Z,30.50
2018-08-23T09:47:33.485Z,30.60
2018-08-23T09:50:02.763Z,30.90
2018-08-23T09:52:33.608Z,31.00
2018-08-23T09:55:02.821Z,30.90
2018-08-23T09:57:32.079Z,30.90
2018-08-23T10:00:06.701Z,31.00
2018-08-23T10:02:41.180Z,31.20
2018-08-23T10:05:15.814Z,31.40
2018-08-23T10:07:50.617Z,31.60
2018-08-23T10:10:25.281Z,31.90
2018-08-23T10:12:59.678Z,32.10
2018-08-23T10:15:34.121Z,32.20
2018-08-23T10:18:08.815Z,32.30
2018-08-23T10:20:46.819Z,32.40
2018-08-23T10:23:21.341Z,32.30
2018-08-23T10:25:51.716Z,32.10
2018-08-23T10:28:24.264Z,32.00
2018-08-23T10:30:53.777Z,32.20
2018-08-23T10:33:23.073Z,32.00
2018-08-23T10:35:56.387Z,31.90
2018-08-23T10:38:27.162Z,31.70
2018-08-23T10:41:01.856Z,31.40
2018-08-23T10:43:36.521Z,31.30
2018-08-23T10:46:06.458Z,31.00
2018-08-23T10:48:35.692Z,30.80
2018-08-23T10:51:04.955Z,30.80
2018-08-23T10:53:34.194Z,30.90
2018-08-23T10:56:03.461Z,30.90
2018-08-23T10:58:32.720Z,30.80
2018-08-23T11:01:01.931Z,31.00
2018-08-23T11:03:31.201Z,31.20
2018-08-23T11:06:00.420Z,31.50
2018-08-23T11:08:32.359Z,31.70
2018-08-23T11:11:06.934Z,32.00
2018-08-23T11:13:41.420Z,32.20
2018-08-23T11:16:15.948Z,32.20
2018-08-23T11:18:50.609Z,32.40
2018-08-23T11:21:28.478Z,32.80
2018-08-23T11:23:57.702Z,32.90
2018-08-23T11:26:26.963Z,33.20
2018-08-23T11:28:56.257Z,33.20
2018-08-23T11:31:28.480Z,33.20
2018-08-23T11:33:57.684Z,33.40
2018-08-23T11:36:26.934Z,33.60
2018-08-23T11:38:56.336Z,33.60
2018-08-23T11:41:25.543Z,33.50
2018-08-23T11:43:54.784Z,33.30
2018-08-23T11:46:23.997Z,33.10
2018-08-23T11:48:53.274Z,32.80
2018-08-23T11:51:22.533Z,32.70
2018-08-23T11:53:51.781Z,32.80
2018-08-23T11:56:21.006Z,32.80
2018-08-23T11:58:50.257Z,32.70
2018-08-23T12:01:19.698Z,32.50
2018-08-23T12:03:48.956Z,32.50
2018-08-23T12:06:18.153Z,32.40
2018-08-23T12:08:47.408Z,32.30
2018-08-23T12:11:16.650Z,32.10
2018-08-23T12:13:49.126Z,32.00
2018-08-23T12:16:18.558Z,31.90
2018-08-23T12:18:48.340Z,32.20
2018-08-23T12:21:17.647Z,32.50
2018-08-23T12:23:47.064Z,32.70
2018-08-23T12:26:17.236Z,32.90
2018-08-23T12:28:51.686Z,32.80
2018-08-23T12:31:20.921Z,32.60
2018-08-23T12:33:50.188Z,32.50
2018-08-23T12:36:24.852Z,32.30
2018-08-23T12:38:59.408Z,32.20
2018-08-23T12:41:33.972Z,32.20
2018-08-23T12:44:03.211Z,32.10
2018-08-23T12:46:32.482Z,32.10
2018-08-23T12:49:01.689Z,32.00
2018-08-23T12:51:30.894Z,32.00
2018-08-23T12:54:00.116Z,32.00
2018-08-23T12:56:29.423Z,31.50
2018-08-23T12:58:58.608Z,31.50
2018-08-23T13:01:27.838Z,31.20
2018-08-23T13:03:57.108Z,31.00
2018-08-23T13:06:26.274Z,31.10
2018-08-23T13:08:55.604Z,31.10
2018-08-23T13:11:24.858Z,30.90
2018-08-23T13:13:54.092Z,30.50
2018-08-23T13:16:23.298Z,30.50
2018-08-23T13:18:52.548Z,30.50
2018-08-23T13:21:21.737Z,30.00
2018-08-23T13:23:50.976Z,29.70
2018-08-23T13:26:20.200Z,29.40
2018-08-23T13:28:49.477Z,29.10
2018-08-23T13:31:18.955Z,29.00
2018-08-23T13:33:48.168Z,28.80
2018-08-23T13:36:17.496Z,28.70
2018-08-23T13:38:46.670Z,28.50
2018-08-23T13:41:15.940Z,28.30
2018-08-23T13:43:45.160Z,28.30
2018-08-23T13:46:14.610Z,28.00
2018-08-23T13:48:43.895Z,28.00
2018-08-23T13:51:13.126Z,27.80
2018-08-23T13:53:42.385Z,27.90
2018-08-23T13:56:11.627Z,27.90
2018-08-23T13:58:41.040Z,27.90
2018-08-23T14:01:10.293Z,27.80
2018-08-23T14:03:39.549Z,27.70
2018-08-23T14:06:08.834Z,27.80
2018-08-23T14:08:38.033Z,27.90
2018-08-23T14:11:07.304Z,27.80
2018-08-23T14:13:36.529Z,27.70
2018-08-23T14:16:05.841Z,27.50
2018-08-23T14:18:35.443Z,27.60
2018-08-23T14:21:04.906Z,27.70
2018-08-23T14:23:34.141Z,27.70
2018-08-23T14:26:03.795Z,27.80
2018-08-23T14:28:33.032Z,27.90
2018-08-23T14:31:02.301Z,27.90
2018-08-23T14:33:31.537Z,28.10
2018-08-23T14:36:01.280Z,28.20
2018-08-23T14:38:30.982Z,28.50
2018-08-23T14:41:00.399Z,28.60
2018-08-23T14:43:29.627Z,28.60
2018-08-23T14:46:04.220Z,28.70
2018-08-23T14:48:33.427Z,28.70
2018-08-23T14:51:02.646Z,28.50
2018-08-23T14:53:31.914Z,28.30
2018-08-23T14:56:06.493Z,28.30
2018-08-23T14:58:35.725Z,28.20
2018-08-23T15:01:04.966Z,28.10
2018-08-23T15:03:34.210Z,28.10
2018-08-23T15:06:03.471Z,28.10
2018-08-23T15:08:32.693Z,28.20
2018-08-23T15:11:01.899Z,28.20
2018-08-23T15:13:31.147Z,28.40
2018-08-23T15:16:00.401Z,28.40
2018-08-23T15:18:29.649Z,28.40
2018-08-23T15:20:58.929Z,28.40
2018-08-23T15:23:28.200Z,28.40
2018-08-23T15:25:57.453Z,28.40
2018-08-23T15:28:26.730Z,28.30
2018-08-23T15:30:55.994Z,28.30
2018-08-23T15:33:25.248Z,28.30
2018-08-23T15:35:54.527Z,28.30
2018-08-23T15:38:23.776Z,28.30
2018-08-23T15:40:53.178Z,28.30
2018-08-23T15:43:22.423Z,28.40
2018-08-23T15:45:51.672Z,28.50
2018-08-23T15:48:20.881Z,28.70
2018-08-23T15:50:50.169Z,28.80
2018-08-23T15:53:19.568Z,29.00
2018-08-23T15:55:48.887Z,29.00
2018-08-23T15:58:18.103Z,29.00
2018-08-23T16:00:47.390Z,29.00
2018-08-23T16:03:16.713Z,28.90
2018-08-23T16:05:45.960Z,28.50
2018-08-23T16:08:15.200Z,28.40
2018-08-23T16:10:44.410Z,28.40
2018-08-23T16:13:13.728Z,28.40
2018-08-23T16:15:42.931Z,28.40
2018-08-23T16:18:17.375Z,28.20
2018-08-23T16:20:48.357Z,28.00
2018-08-23T16:23:17.584Z,28.00
2018-08-23T16:25:46.800Z,28.00
2018-08-23T16:28:16.058Z,27.90
2018-08-23T16:30:45.253Z,27.80
2018-08-23T16:33:14.597Z,27.80
2018-08-23T16:35:43.813Z,27.80
2018-08-23T16:38:13.086Z,27.70
2018-08-23T16:40:42.330Z,27.70
2018-08-23T16:43:11.580Z,27.60
2018-08-23T16:45:40.806Z,27.50
2018-08-23T16:48:10.113Z,27.40
2018-08-23T16:50:39.327Z,27.40
2018-08-23T16:53:08.590Z,27.40
2018-08-23T16:55:37.822Z,27.20
2018-08-23T16:58:07.070Z,27.20
2018-08-23T17:00:36.317Z,27.20
2018-08-23T17:03:05.681Z,27.20
2018-08-23T17:05:34.917Z,27.30
2018-08-23T17:08:04.145Z,27.20
2018-08-23T17:10:33.369Z,27.20
2018-08-23T17:13:02.641Z,27.00
2018-08-23T17:15:37.162Z,26.90
2018-08-23T17:18:06.475Z,26.90
2018-08-23T17:20:35.794Z,27.00
2018-08-23T17:23:05.126Z,26.90
2018-08-23T17:25:34.391Z,26.90
2018-08-23T17:28:03.633Z,26.80
2018-08-23T17:30:32.878Z,26.80
2018-08-23T17:33:02.188Z,26.80
2018-08-23T17:35:31.645Z,26.80
2018-08-23T17:38:00.947Z,26.80
2018-08-23T17:40:30.326Z,26.90
2018-08-23T17:42:59.555Z,26.70
2018-08-23T17:45:28.779Z,26.70
2018-08-23T17:47:58.024Z,26.60
2018-08-23T17:50:27.300Z,26.60
2018-08-23T17:52:56.561Z,26.60
2018-08-23T17:55:25.786Z,26.50
2018-08-23T17:57:55.117Z,26.60
2018-08-23T18:00:24.333Z,26.60
2018-08-23T18:02:53.611Z,26.50
2018-08-23T18:05:22.969Z,26.50
2018-08-23T18:07:52.245Z,26.60
2018-08-23T18:10:21.480Z,26.60
2018-08-23T18:12:50.819Z,26.60
2018-08-23T18:15:20.138Z,26.50
2018-08-23T18:17:49.601Z,26.60
2018-08-23T18:20:19.668Z,26.50
2018-08-23T18:22:49.084Z,26.50
2018-08-23T18:25:18.488Z,26.40
2018-08-23T18:27:47.810Z,26.50
2018-08-23T18:30:17.261Z,26.50
2018-08-23T18:32:46.560Z,26.40
2018-08-23T18:35:16.999Z,26.40
2018-08-23T18:37:46.288Z,26.30
2018-08-23T18:40:15.538Z,26.30
2018-08-23T18:42:44.844Z,26.20
2018-08-23T18:45:14.084Z,26.10
2018-08-23T18:47:43.642Z,26.20
2018-08-23T18:50:12.890Z,26.10
2018-08-23T18:52:42.144Z,26.10
2018-08-23T18:55:11.414Z,26.00
2018-08-23T18:57:40.666Z,26.10
2018-08-23T19:00:10.005Z,26.00
2018-08-23T19:02:39.157Z,26.00
2018-08-23T19:05:08.366Z,25.80
2018-08-23T19:07:40.741Z,25.90
2018-08-23T19:10:10.838Z,25.80
2018-08-23T19:12:40.118Z,25.80
2018-08-23T19:15:09.539Z,25.70
2018-08-23T19:17:39.701Z,25.60
2018-08-23T19:20:10.411Z,25.60
2018-08-23T19:22:39.812Z,25.30
2018-08-23T19:25:10.225Z,25.20
2018-08-23T19:27:40.105Z,25.10
2018-08-23T19:30:10.170Z,25.10
2018-08-23T19:32:39.490Z,25.10
2018-08-23T19:35:08.741Z,25.10
2018-08-23T19:37:38.068Z,25.10
2018-08-23T19:40:07.325Z,25.00
2018-08-23T19:42:36.628Z,24.80
2018-08-23T19:45:05.866Z,24.70
2018-08-23T19:47:40.360Z,24.60
2018-08-23T19:50:10.925Z,24.50
2018-08-23T19:52:40.198Z,24.40
2018-08-23T19:55:10.672Z,24.40
2018-08-23T19:57:39.921Z,24.40
2018-08-23T20:00:10.347Z,24.30
2018-08-23T20:02:40.303Z,24.30
2018-08-23T20:05:09.548Z,24.30
2018-08-23T20:07:38.798Z,24.30
2018-08-23T20:10:08.045Z,24.30
2018-08-23T20:12:37.255Z,24.30
2018-08-23T20:15:06.484Z,24.20
2018-08-23T20:17:35.689Z,24.20
2018-08-23T20:20:04.991Z,24.10
2018-08-23T20:22:34.213Z,24.10
2018-08-23T20:25:03.521Z,24.10
2018-08-23T20:27:32.735Z,24.10
2018-08-23T20:30:01.988Z,24.10
2018-08-23T20:32:31.189Z,24.00
2018-08-23T20:35:00.421Z,24.00
2018-08-23T20:37:29.608Z,24.00
2018-08-23T20:39:58.833Z,24.00
2018-08-23T20:42:28.053Z,24.00
2018-08-23T20:44:57.288Z,24.00
2018-08-23T20:47:26.525Z,23.90
2018-08-23T20:49:55.800Z,23.90
2018-08-23T20:52:25.011Z,23.90
2018-08-23T20:54:54.266Z,23.80
2018-08-23T20:57:23.481Z,23.80
2018-08-23T20:59:52.719Z,23.70
2018-08-23T21:02:21.963Z,23.70
2018-08-23T21:04:51.210Z,23.70
2018-08-23T21:07:20.606Z,23.70
2018-08-23T21:09:49.884Z,23.60
2018-08-23T21:12:19.109Z,23.50
2018-08-23T21:14:48.343Z,23.60
2018-08-23T21:17:17.559Z,23.60
2018-08-23T21:19:46.777Z,23.60
2018-08-23T21:22:16.005Z,23.60
2018-08-23T21:24:45.269Z,23.70
2018-08-23T21:27:14.503Z,23.70
2018-08-23T21:29:43.828Z,23.70
2018-08-23T21:32:14.290Z,23.60
2018-08-23T21:34:43.618Z,23.40
2018-08-23T21:37:12.854Z,23.30
2018-08-23T21:39:42.172Z,23.20
2018-08-23T21:42:11.400Z,23.10
2018-08-23T21:44:40.701Z,23.10
2018-08-23T21:47:09.958Z,23.10
2018-08-23T21:49:39.185Z,23.10
2018-08-23T21:52:08.490Z,23.10
2018-08-23T21:54:37.868Z,23.10
2018-08-23T21:57:07.254Z,23.10
2018-08-23T21:59:36.505Z,23.00
2018-08-23T22:02:11.208Z,23.00
2018-08-23T22:04:45.597Z,22.90
2018-08-23T22:07:14.873Z,22.90
2018-08-23T22:09:48.449Z,22.90
2018-08-23T22:12:19.398Z,22.90
2018-08-23T22:14:49.282Z,22.90
2018-08-23T22:17:19.367Z,22.80
2018-08-23T22:19:48.707Z,22.80
2018-08-23T22:22:17.967Z,22.80
2018-08-23T22:24:47.237Z,22.80
2018-08-23T22:27:16.505Z,22.80
2018-08-23T22:29:45.739Z,22.80
2018-08-23T22:32:15.005Z,22.80
2018-08-23T22:34:44.254Z,22.80
2018-08-23T22:37:13.498Z,22.80
2018-08-23T22:39:42.866Z,22.80
2018-08-23T22:42:12.100Z,22.80
2018-08-23T22:44:41.433Z,22.90
2018-08-23T22:47:10.683Z,22.90
2018-08-23T22:49:40.059Z,22.90
2018-08-23T22:52:09.260Z,22.90
2018-08-23T22:54:38.536Z,22.90
2018-08-23T22:57:07.729Z,22.90
2018-08-23T22:59:36.986Z,22.90
2018-08-23T23:02:06.231Z,22.90
2018-08-23T23:04:35.466Z,22.90
2018-08-23T23:07:07.587Z,22.90
2018-08-23T23:09:37.115Z,22.90
2018-08-23T23:12:06.982Z,22.90
2018-08-23T23:14:36.217Z,23.00
2018-08-23T23:17:07.056Z,23.00
2018-08-23T23:19:36.334Z,23.00
2018-08-23T23:22:05.789Z,23.00
2018-08-23T23:24:40.305Z,23.00
2018-08-23T23:27:09.520Z,23.00
2018-08-23T23:29:38.873Z,23.00
2018-08-23T23:32:08.117Z,23.00
2018-08-23T23:34:37.365Z,23.00
2018-08-23T23:37:06.670Z,23.00
2018-08-23T23:39:36.025Z,22.90
2018-08-23T23:42:05.270Z,23.00
2018-08-23T23:44:34.630Z,23.00
2018-08-23T23:47:03.920Z,22.90
2018-08-23T23:49:33.249Z,22.90
2018-08-23T23:52:02.546Z,22.90
2018-08-23T23:54:31.817Z,22.90
2018-08-23T23:57:01.153Z,22.80
2018-08-23T23:59:30.397Z,22.80
